Time;durP1;ratioP1;P1;durP2;ratioP2;P2;SDS_P1;SDS_P2;PMS_P1;PMS_P2;Temp;Humidity;BMP_temperature;BMP_pressure;BME280_temperature;BME280_humidity;BME280_pressure;Samples;Min_cycle;Max_cycle;Signal;HPM_P1;HPM_P2
2022/01/26 00:07:08;;;;;;;48.20;33.30;;;;;;;;;;5056447;28;20156;-49
2022/01/26 00:09:33;;;;;;;37.85;29.50;;;;;;;;;;5056462;28;20109;-45
2022/01/26 00:11:59;;;;;;;38.03;25.70;;;;;;;;;;5059638;28;20150;-43
2022/01/26 00:14:24;;;;;;;42.65;26.55;;;;;;;;;;5054080;28;20363;-45
2022/01/26 00:16:50;;;;;;;40.42;28.38;;;;;;;;;;5056732;28;20032;-47
2022/01/26 00:19:21;;;;;;;29.95;21.85;;;;;;;;;;5056332;28;20095;-46
2022/01/26 00:21:52;;;;;;;30.85;20.25;;;;;;;;;;5057940;28;20134;-43
2022/01/26 00:24:37;;;;;;;28.02;17.42;;;;;;;;;;5057509;28;20141;-44
2022/01/26 00:27:20;;;;;;;15.50;11.40;;;;;;;;;;5057899;28;20048;-49
2022/01/26 00:29:57;;;;;;;19.88;15.73;;;;;;;;;;5057970;28;20021;-44
2022/01/26 00:40:50;;;;;;;23.98;18.58;;;;;;;;;;5054594;28;20058;-43
2022/01/26 00:43:21;;;;;;;23.75;18.58;;;;;;;;;;5054803;28;20017;-44
2022/01/26 00:45:49;;;;;;;30.73;24.45;;;;;;;;;;5054430;28;20017;-43
2022/01/26 00:48:19;;;;;;;38.72;24.65;;;;;;;;;;5056680;28;20154;-46
2022/01/26 00:50:50;;;;;;;40.50;26.45;;;;;;;;;;5053755;28;20125;-46
2022/01/26 00:53:15;;;;;;;25.10;18.45;;;;;;;;;;5056829;28;20025;-46
2022/01/26 00:55:41;;;;;;;30.02;16.95;;;;;;;;;;5056017;28;20024;-49
2022/01/26 00:58:06;;;;;;;26.58;19.25;;;;;;;;;;5059643;28;20560;-45
2022/01/26 01:00:31;;;;;;;40.05;28.30;;;;;;;;;;5052453;28;20009;-43
2022/01/26 01:02:58;;;;;;;39.20;28.98;;;;;;;;;;5058358;28;20459;-43
2022/01/26 01:05:28;;;;;;;44.60;27.45;;;;;;;;;;5056209;28;20043;-43
2022/01/26 01:08:02;;;;;;;23.87;21.27;;;;;;;;;;5058167;28;20052;-43
2022/01/26 01:10:27;;;;;;;26.35;18.45;;;;;;;;;;5054402;28;20511;-47
2022/01/26 01:12:56;;;;;;;27.63;16.77;;;;;;;;;;5058585;28;20017;-46
2022/01/26 01:15:24;;;;;;;14.77;11.00;;;;;;;;;;5054463;28;20041;-46
2022/01/26 01:17:50;;;;;;;19.95;13.68;;;;;;;;;;5054439;28;20036;-43
2022/01/26 01:30:41;;;;;;;12.18;7.47;;;;;;;;;;5056194;28;20021;-47
2022/01/26 01:33:09;;;;;;;11.05;9.82;;;;;;;;;;5058737;28;20035;-47
2022/01/26 01:35:37;;;;;;;12.18;8.80;;;;;;;;;;5053570;28;20110;-48
2022/01/26 01:38:09;;;;;;;10.15;7.03;;;;;;;;;;5055029;28;20063;-44
2022/01/26 01:40:34;;;;;;;;;;;;;;;;;;5053808;28;20111;-45
2022/01/26 01:42:59;;;;;;;9.55;7.47;;;;;;;;;;5056823;28;20468;-44
2022/01/26 01:45:32;;;;;;;12.52;9.50;;;;;;;;;;5054732;28;20031;-44
2022/01/26 01:47:57;;;;;;;20.42;10.18;;;;;;;;;;5060087;28;20086;-48
2022/01/26 01:50:23;;;;;;;44.17;40.33;;;;;;;;;;5051652;28;20382;-44
2022/01/26 01:52:48;;;;;;;16.00;13.88;;;;;;;;;;5051779;28;20029;-44
2022/01/26 01:55:15;;;;;;;16.27;9.02;;;;;;;;;;5057446;28;20024;-46
2022/01/26 01:57:40;;;;;;;9.73;7.40;;;;;;;;;;5055119;28;20128;-46
2022/01/26 02:00:07;;;;;;;15.82;8.48;;;;;;;;;;5054180;28;20162;-45
2022/01/26 02:02:32;;;;;;;10.85;7.55;;;;;;;;;;5058601;28;20103;-50
2022/01/26 02:04:58;;;;;;;10.32;7.13;;;;;;;;;;5058802;28;20229;-46
2022/01/26 02:07:24;;;;;;;15.88;10.13;;;;;;;;;;5055307;28;20032;-46
2022/01/26 02:09:49;;;;;;;15.27;10.32;;;;;;;;;;5051860;28;20029;-45
2022/01/26 02:12:17;;;;;;;15.77;9.10;;;;;;;;;;5056403;28;20462;-44
2022/01/26 02:14:48;;;;;;;9.48;8.13;;;;;;;;;;5052631;28;20445;-47
2022/01/26 02:20:24;;;;;;;13.45;8.90;;;;;;;;;;5051892;28;20478;-44
2022/01/26 02:58:38;;;;;;;11.70;6.00;;;;;;;;;;5053746;28;20056;-44
2022/01/26 03:05:58;;;;;;;6.72;3.85;;;;;;;;;;5051183;28;20448;-43
2022/01/26 03:08:32;;;;;;;6.85;5.07;;;;;;;;;;5054183;28;20021;-45
2022/01/26 03:11:02;;;;;;;7.47;6.22;;;;;;;;;;5055534;28;20072;-47
2022/01/26 03:13:31;;;;;;;6.55;4.10;;;;;;;;;;5055024;28;20024;-45
2022/01/26 03:16:03;;;;;;;8.57;4.65;;;;;;;;;;5052631;28;20438;-44
2022/01/26 03:20:57;;;;;;;10.18;6.20;;;;;;;;;;5056953;28;20589;-49
2022/01/26 03:36:16;;;;;;;14.65;5.82;;;;;;;;;;5052415;28;20210;-45
2022/01/26 03:38:46;;;;;;;6.25;5.13;;;;;;;;;;5051595;28;20074;-48
2022/01/26 03:43:56;;;;;;;7.10;4.47;;;;;;;;;;5056426;28;20506;-50
2022/01/26 03:46:22;;;;;;;7.63;3.60;;;;;;;;;;5057385;28;20048;-48
2022/01/26 03:48:47;;;;;;;3.58;2.28;;;;;;;;;;5055913;28;20386;-51
2022/01/26 03:51:12;;;;;;;7.70;3.05;;;;;;;;;;5056777;28;20605;-49
2022/01/26 03:53:38;;;;;;;3.40;2.70;;;;;;;;;;5056006;28;20035;-45
2022/01/26 03:56:03;;;;;;;5.28;2.83;;;;;;;;;;5058278;28;20165;-51
2022/01/26 03:58:28;;;;;;;3.67;3.28;;;;;;;;;;5057175;28;20020;-47
2022/01/26 04:00:54;;;;;;;6.50;4.43;;;;;;;;;;5056787;28;20118;-48
2022/01/26 04:03:19;;;;;;;5.50;3.65;;;;;;;;;;5058697;28;20016;-46
2022/01/26 04:05:45;;;;;;;5.38;3.33;;;;;;;;;;5058533;28;20446;-44
2022/01/26 04:08:16;;;;;;;9.82;2.80;;;;;;;;;;5056570;28;20024;-48
2022/01/26 04:11:03;;;;;;;5.40;2.08;;;;;;;;;;5058723;28;20104;-46
2022/01/26 04:13:28;;;;;;;4.50;3.03;;;;;;;;;;5055470;28;20052;-46
2022/01/26 04:15:53;;;;;;;5.70;3.25;;;;;;;;;;5056857;28;20052;-44
2022/01/26 04:18:25;;;;;;;4.95;3.05;;;;;;;;;;5058183;28;20078;-43
2022/01/26 04:20:54;;;;;;;5.53;2.72;;;;;;;;;;5055332;28;20017;-45
2022/01/26 04:23:28;;;;;;;3.10;1.90;;;;;;;;;;5058843;28;20125;-46
2022/01/26 04:25:54;;;;;;;1.98;1.42;;;;;;;;;;5057151;28;20108;-44
2022/01/26 04:28:26;;;;;;;3.70;1.95;;;;;;;;;;5058536;28;20116;-45
2022/01/26 04:30:52;;;;;;;4.82;2.17;;;;;;;;;;5057582;28;20364;-48
2022/01/26 04:33:17;;;;;;;3.80;2.53;;;;;;;;;;5054783;28;20470;-43
2022/01/26 04:35:45;;;;;;;6.43;2.78;;;;;;;;;;5058657;28;20030;-48
2022/01/26 04:40:58;;;;;;;9.55;5.65;;;;;;;;;;5058410;28;20496;-44
2022/01/26 04:43:27;;;;;;;6.88;4.65;;;;;;;;;;5058063;28;20028;-45
2022/01/26 04:45:53;;;;;;;12.20;6.32;;;;;;;;;;5057567;28;20028;-45
2022/01/26 04:48:19;;;;;;;6.28;3.58;;;;;;;;;;5058866;28;20584;-45
2022/01/26 04:50:44;;;;;;;4.05;2.45;;;;;;;;;;5055649;28;20033;-43
2022/01/26 04:53:10;;;;;;;3.92;2.80;;;;;;;;;;5055805;28;20017;-43
2022/01/26 04:55:35;;;;;;;5.22;2.53;;;;;;;;;;5055815;28;20035;-45
2022/01/26 04:58:00;;;;;;;6.80;3.33;;;;;;;;;;5054033;28;20037;-45
2022/01/26 05:00:26;;;;;;;10.70;5.05;;;;;;;;;;5054823;28;20016;-45
2022/01/26 05:02:51;;;;;;;7.55;4.78;;;;;;;;;;5056930;28;20035;-47
2022/01/26 05:05:16;;;;;;;7.95;3.53;;;;;;;;;;5052694;28;20398;-46
2022/01/26 05:07:42;;;;;;;7.25;5.63;;;;;;;;;;5053262;28;20032;-48
2022/01/26 05:10:07;;;;;;;7.30;5.25;;;;;;;;;;5058939;28;20020;-48
2022/01/26 05:12:34;;;;;;;6.00;4.97;;;;;;;;;;5055569;28;20029;-48
2022/01/26 05:14:59;;;;;;;4.55;3.53;;;;;;;;;;5054924;28;20451;-45
2022/01/26 05:17:25;;;;;;;8.73;4.88;;;;;;;;;;5054612;28;20036;-43
2022/01/26 05:19:55;;;;;;;10.75;6.38;;;;;;;;;;5054550;28;20482;-48
2022/01/26 05:22:20;;;;;;;7.18;5.82;;;;;;;;;;5055152;28;20048;-45
2022/01/26 05:24:47;;;;;;;6.35;5.10;;;;;;;;;;5056046;28;20044;-46
2022/01/26 05:27:13;;;;;;;13.02;5.57;;;;;;;;;;5057716;28;20028;-44
2022/01/26 05:29:38;;;;;;;7.75;6.43;;;;;;;;;;5058109;28;20017;-45
2022/01/26 05:32:03;;;;;;;8.13;4.82;;;;;;;;;;5054287;28;20618;-47
2022/01/26 05:34:29;;;;;;;7.28;4.43;;;;;;;;;;5054725;28;20029;-48
2022/01/26 05:36:54;;;;;;;6.25;3.97;;;;;;;;;;5055340;28;20025;-44
2022/01/26 05:39:19;;;;;;;6.10;3.95;;;;;;;;;;5056027;28;20519;-43
2022/01/26 05:41:45;;;;;;;8.70;4.47;;;;;;;;;;5056015;28;20028;-46
2022/01/26 05:44:10;;;;;;;5.75;4.70;;;;;;;;;;5058450;28;20142;-47
2022/01/26 05:46:41;;;;;;;7.13;4.65;;;;;;;;;;5057645;28;20119;-48
2022/01/26 05:49:06;;;;;;;10.60;4.60;;;;;;;;;;5055515;28;20020;-47
2022/01/26 05:51:33;;;;;;;14.63;13.25;;;;;;;;;;5056075;28;20043;-45
2022/01/26 05:53:58;;;;;;;18.70;8.20;;;;;;;;;;5056190;28;20117;-44
2022/01/26 05:56:24;;;;;;;8.80;6.07;;;;;;;;;;5056623;28;20080;-46
2022/01/26 05:58:49;;;;;;;12.95;5.65;;;;;;;;;;5056334;28;20025;-45
2022/01/26 06:01:15;;;;;;;8.15;5.78;;;;;;;;;;5054659;28;20048;-46
2022/01/26 06:03:40;;;;;;;7.90;3.55;;;;;;;;;;5056812;28;20082;-46
2022/01/26 06:06:05;;;;;;;5.30;3.88;;;;;;;;;;5055282;28;20022;-49
2022/01/26 06:08:31;;;;;;;6.88;4.10;;;;;;;;;;5058130;28;20328;-46
2022/01/26 06:10:57;;;;;;;6.00;3.83;;;;;;;;;;5056235;28;20041;-47
2022/01/26 06:13:23;;;;;;;4.78;3.88;;;;;;;;;;5055626;28;20032;-46
2022/01/26 06:15:48;;;;;;;6.22;5.18;;;;;;;;;;5053139;28;20048;-44
2022/01/26 06:18:14;;;;;;;5.97;4.32;;;;;;;;;;5049897;28;20017;-46
2022/01/26 06:20:39;;;;;;;14.18;8.65;;;;;;;;;;5052091;28;20595;-45
2022/01/26 06:23:05;;;;;;;13.93;7.80;;;;;;;;;;5052628;28;20078;-45
2022/01/26 06:25:31;;;;;;;6.18;5.47;;;;;;;;;;5058263;28;20025;-45
2022/01/26 06:27:59;;;;;;;11.77;9.63;;;;;;;;;;5056581;28;20131;-45
2022/01/26 06:30:24;;;;;;;90.47;81.22;;;;;;;;;;5054788;28;20025;-48
2022/01/26 06:32:50;;;;;;;37.50;29.50;;;;;;;;;;5050851;28;20021;-46
2022/01/26 06:35:15;;;;;;;17.92;11.32;;;;;;;;;;5056144;28;20016;-45
2022/01/26 06:37:41;;;;;;;9.85;8.85;;;;;;;;;;5055901;28;20479;-48
2022/01/26 06:40:06;;;;;;;9.90;7.85;;;;;;;;;;5055166;28;20035;-47
2022/01/26 06:42:39;;;;;;;24.80;7.32;;;;;;;;;;5054163;28;20429;-47
2022/01/26 06:45:15;;;;;;;11.98;5.45;;;;;;;;;;5054349;28;20029;-47
2022/01/26 06:50:24;;;;;;;14.45;12.40;;;;;;;;;;5055116;28;20024;-44
2022/01/26 06:52:49;;;;;;;9.50;8.50;;;;;;;;;;5054773;28;20027;-46
2022/01/26 06:55:16;;;;;;;8.60;6.13;;;;;;;;;;5055797;28;20023;-45
2022/01/26 06:57:41;;;;;;;16.02;11.73;;;;;;;;;;5055657;28;20037;-43
2022/01/26 07:00:07;;;;;;;10.40;9.30;;;;;;;;;;5056051;28;20030;-48
2022/01/26 07:02:33;;;;;;;11.02;9.88;;;;;;;;;;5057293;28;20107;-48
2022/01/26 07:04:58;;;;;;;17.77;9.95;;;;;;;;;;5055056;28;20549;-45
2022/01/26 07:07:23;;;;;;;15.43;10.27;;;;;;;;;;5053524;28;20078;-45
2022/01/26 07:09:49;;;;;;;9.95;7.63;;;;;;;;;;5052501;28;20102;-44
2022/01/26 07:12:14;;;;;;;6.60;5.90;;;;;;;;;;5052782;28;20287;-45
2022/01/26 07:22:51;;;;;;;16.70;13.88;;;;;;;;;;5058886;28;20113;-43
2022/01/26 07:25:16;;;;;;;14.18;12.30;;;;;;;;;;5063068;28;20674;-43
2022/01/26 07:27:42;;;;;;;17.50;11.55;;;;;;;;;;5055778;28;20032;-42
2022/01/26 07:30:08;;;;;;;13.05;10.77;;;;;;;;;;5057514;28;20127;-45
2022/01/26 07:32:36;;;;;;;22.70;12.52;;;;;;;;;;5061686;28;20481;-43
2022/01/26 07:35:01;;;;;;;43.45;15.05;;;;;;;;;;5057103;28;20024;-41
2022/01/26 07:37:26;;;;;;;17.52;14.13;;;;;;;;;;5058067;28;20025;-43
2022/01/26 07:40:04;;;;;;;17.38;15.10;;;;;;;;;;5055922;28;20055;-42
2022/01/26 07:42:30;;;;;;;30.33;18.15;;;;;;;;;;5058062;28;20039;-43
2022/01/26 07:44:55;;;;;;;34.15;17.73;;;;;;;;;;5055686;28;20115;-41
2022/01/26 07:47:23;;;;;;;35.75;21.33;;;;;;;;;;5057768;28;20021;-41
2022/01/26 07:49:48;;;;;;;28.33;22.38;;;;;;;;;;5054898;28;20044;-47
2022/01/26 07:52:14;;;;;;;26.77;19.92;;;;;;;;;;5057725;28;20052;-43
2022/01/26 07:54:39;;;;;;;27.88;19.10;;;;;;;;;;5056793;28;20035;-43
2022/01/26 07:57:07;;;;;;;27.27;22.02;;;;;;;;;;5060725;28;20472;-43
2022/01/26 07:59:32;;;;;;;49.53;27.45;;;;;;;;;;5055727;28;20474;-43
2022/01/26 08:01:57;;;;;;;43.10;21.88;;;;;;;;;;5058461;28;20026;-43
2022/01/26 08:04:23;;;;;;;31.67;24.00;;;;;;;;;;5058763;28;20029;-41
2022/01/26 08:06:48;;;;;;;35.13;26.42;;;;;;;;;;5057838;28;20111;-43
2022/01/26 08:09:13;;;;;;;59.95;32.10;;;;;;;;;;5057741;28;20024;-42
2022/01/26 08:11:39;;;;;;;48.95;34.85;;;;;;;;;;5054030;28;20052;-43
2022/01/26 08:14:04;;;;;;;61.63;36.92;;;;;;;;;;5054808;28;20469;-46
2022/01/26 08:16:29;;;;;;;46.85;37.22;;;;;;;;;;5057320;28;20437;-45
2022/01/26 08:18:55;;;;;;;52.72;33.30;;;;;;;;;;5058686;28;20341;-47
2022/01/26 08:21:20;;;;;;;53.53;33.83;;;;;;;;;;5055391;28;20015;-46
2022/01/26 08:23:47;;;;;;;50.50;37.47;;;;;;;;;;5060418;28;20045;-44
2022/01/26 08:26:13;;;;;;;39.13;30.40;;;;;;;;;;5061728;28;20024;-44
2022/01/26 08:28:42;;;;;;;44.60;30.48;;;;;;;;;;5056005;28;20108;-48
2022/01/26 08:31:07;;;;;;;40.60;36.38;;;;;;;;;;5058828;28;20098;-43
2022/01/26 08:33:32;;;;;;;41.88;36.65;;;;;;;;;;5056453;28;20024;-44
2022/01/26 08:35:57;;;;;;;47.75;36.15;;;;;;;;;;5054046;28;20071;-48
2022/01/26 08:38:24;;;;;;;43.45;37.00;;;;;;;;;;5056599;28;20032;-47
2022/01/26 08:40:50;;;;;;;82.43;61.05;;;;;;;;;;5054023;28;20048;-42
2022/01/26 08:43:15;;;;;;;51.22;35.60;;;;;;;;;;5056293;28;20040;-47
2022/01/26 08:45:41;;;;;;;54.47;33.30;;;;;;;;;;5056115;28;20566;-42
2022/01/26 08:48:06;;;;;;;39.40;26.98;;;;;;;;;;5054411;28;20037;-42
2022/01/26 08:50:32;;;;;;;44.95;31.85;;;;;;;;;;5057404;28;20089;-45
2022/01/26 08:52:57;;;;;;;42.05;31.45;;;;;;;;;;5057063;28;20100;-41
2022/01/26 08:55:23;;;;;;;32.28;28.70;;;;;;;;;;5062053;28;20025;-44
2022/01/26 08:57:48;;;;;;;55.30;42.53;;;;;;;;;;5056312;28;20049;-48
2022/01/26 09:00:13;;;;;;;58.40;39.20;;;;;;;;;;5054856;28;20024;-46
2022/01/26 09:02:39;;;;;;;57.97;44.33;;;;;;;;;;5052680;28;20009;-46
2022/01/26 09:05:06;;;;;;;73.45;56.30;;;;;;;;;;5056957;28;20457;-48
2022/01/26 09:07:31;;;;;;;68.25;48.55;;;;;;;;;;5056608;28;20025;-45
2022/01/26 09:10:00;;;;;;;78.28;56.33;;;;;;;;;;5054188;28;20430;-45
2022/01/26 09:12:26;;;;;;;68.93;49.92;;;;;;;;;;5053885;28;20036;-43
2022/01/26 09:14:52;;;;;;;79.68;49.53;;;;;;;;;;5052312;28;20028;-45
2022/01/26 09:17:19;;;;;;;62.92;47.78;;;;;;;;;;5058345;28;20029;-44
2022/01/26 09:19:45;;;;;;;86.57;61.80;;;;;;;;;;5054819;28;20518;-44
2022/01/26 09:22:12;;;;;;;76.43;64.28;;;;;;;;;;5057469;28;20020;-43
2022/01/26 09:24:38;;;;;;;76.93;54.72;;;;;;;;;;5055557;28;20170;-43
2022/01/26 09:27:04;;;;;;;62.38;49.22;;;;;;;;;;5055089;28;20028;-46
2022/01/26 09:29:30;;;;;;;60.67;46.42;;;;;;;;;;5055934;28;20021;-42
2022/01/26 09:31:56;;;;;;;50.90;40.75;;;;;;;;;;5051597;28;20043;-44
2022/01/26 09:34:22;;;;;;;40.88;34.67;;;;;;;;;;5054334;28;20016;-46
2022/01/26 09:36:48;;;;;;;44.42;34.03;;;;;;;;;;5055721;28;20028;-45
2022/01/26 09:39:14;;;;;;;49.25;33.58;;;;;;;;;;5056913;28;20012;-44
2022/01/26 09:41:40;;;;;;;33.00;29.48;;;;;;;;;;5057957;28;20056;-45
2022/01/26 09:44:06;;;;;;;47.08;32.28;;;;;;;;;;5054302;28;20075;-44
2022/01/26 09:46:31;;;;;;;39.72;30.40;;;;;;;;;;5056768;28;20012;-44
2022/01/26 09:48:57;;;;;;;43.28;26.92;;;;;;;;;;5055312;28;20103;-44
2022/01/26 09:51:22;;;;;;;23.95;18.90;;;;;;;;;;5056318;28;20028;-49
2022/01/26 09:54:01;;;;;;;21.65;16.70;;;;;;;;;;5052836;28;20110;-43
2022/01/26 09:56:26;;;;;;;15.65;10.13;;;;;;;;;;5052475;28;20583;-43
2022/01/26 09:58:52;;;;;;;9.35;8.27;;;;;;;;;;5059647;28;20024;-45
2022/01/26 10:01:17;;;;;;;19.63;13.02;;;;;;;;;;5054683;28;20106;-42
2022/01/26 10:03:45;;;;;;;8.48;6.25;;;;;;;;;;5054225;28;20062;-45
2022/01/26 10:06:18;;;;;;;13.90;9.05;;;;;;;;;;5055510;28;20031;-43
2022/01/26 10:19:00;;;;;;;20.67;13.40;;;;;;;;;;5054963;28;20477;-42
2022/01/26 10:21:25;;;;;;;10.15;6.05;;;;;;;;;;5053379;28;20106;-47
2022/01/26 10:24:00;;;;;;;16.45;7.40;;;;;;;;;;5051451;28;20150;-42
2022/01/26 10:26:25;;;;;;;10.85;7.28;;;;;;;;;;5054379;28;20034;-43
2022/01/26 10:28:52;;;;;;;9.70;6.38;;;;;;;;;;5053997;28;20024;-42
2022/01/26 10:31:39;;;;;;;9.48;4.18;;;;;;;;;;5051212;28;20024;-43
2022/01/26 10:34:12;;;;;;;24.08;8.02;;;;;;;;;;5050421;28;20017;-44
2022/01/26 10:36:47;;;;;;;9.55;5.18;;;;;;;;;;5054861;28;20065;-47
2022/01/26 10:39:14;;;;;;;6.18;3.65;;;;;;;;;;5053483;28;20016;-45
2022/01/26 10:41:40;;;;;;;14.93;3.25;;;;;;;;;;5056915;28;20013;-45
2022/01/26 10:44:06;;;;;;;8.20;3.83;;;;;;;;;;5052616;28;20827;-45
2022/01/26 10:46:40;;;;;;;8.85;5.65;;;;;;;;;;5051656;28;20021;-45
2022/01/26 10:49:15;;;;;;;6.78;3.63;;;;;;;;;;5054314;28;20168;-42
2022/01/26 10:54:57;;;;;;;34.05;12.18;;;;;;;;;;5056375;28;20032;-44
2022/01/26 10:57:04;;;;;;;14.82;8.35;;;;;;;;;;5055735;28;20200;-43
2022/01/26 10:59:31;;;;;;;19.35;7.90;;;;;;;;;;5057559;28;20553;-43
2022/01/26 11:02:00;;;;;;;15.68;6.03;;;;;;;;;;5056073;28;20048;-45
2022/01/26 11:04:27;;;;;;;6.03;4.28;;;;;;;;;;5056958;28;20060;-46
2022/01/26 11:06:52;;;;;;;6.88;3.58;;;;;;;;;;5055196;28;20060;-45
2022/01/26 11:09:20;;;;;;;14.35;5.45;;;;;;;;;;5056243;28;20167;-43
2022/01/26 11:11:46;;;;;;;5.95;3.28;;;;;;;;;;5056958;28;20108;-48
2022/01/26 11:14:16;;;;;;;5.75;4.50;;;;;;;;;;5057544;28;20135;-43
2022/01/26 11:16:53;;;;;;;17.95;5.93;;;;;;;;;;5052907;28;20025;-43
2022/01/26 11:19:18;;;;;;;9.25;4.22;;;;;;;;;;5055290;28;20020;-43
2022/01/26 11:21:44;;;;;;;8.77;5.95;;;;;;;;;;5059806;28;20036;-43
2022/01/26 11:24:15;;;;;;;12.88;5.78;;;;;;;;;;5058599;28;20032;-44
2022/01/26 11:26:42;;;;;;;;;;;;;;;;;;5060649;28;20024;-46
2022/01/26 11:29:14;;;;;;;4.65;3.42;;;;;;;;;;5055979;28;19919;-46
2022/01/26 11:31:41;;;;;;;4.25;3.60;;;;;;;;;;5055958;28;20021;-47
2022/01/26 11:34:07;;;;;;;5.57;2.67;;;;;;;;;;5060628;28;20021;-44
2022/01/26 11:36:32;;;;;;;14.50;3.10;;;;;;;;;;5056447;28;20472;-44
2022/01/26 11:46:56;;;;;;;7.57;4.55;;;;;;;;;;5060902;28;20032;-48
2022/01/26 11:49:23;;;;;;;8.82;5.72;;;;;;;;;;5056195;28;20013;-45
2022/01/26 11:51:50;;;;;;;10.50;6.25;;;;;;;;;;5053927;28;20033;-46
2022/01/26 11:54:20;;;;;;;4.15;3.33;;;;;;;;;;5057138;28;20046;-44
2022/01/26 11:56:58;;;;;;;19.02;15.15;;;;;;;;;;5057604;28;20052;-46
2022/01/26 11:59:25;;;;;;;17.38;7.35;;;;;;;;;;5054385;28;20017;-50
2022/01/26 12:01:58;;;;;;;8.25;5.53;;;;;;;;;;5053213;28;20021;-45
2022/01/26 12:04:25;;;;;;;9.45;6.93;;;;;;;;;;5054124;28;20058;-47
2022/01/26 12:06:58;;;;;;;8.18;5.97;;;;;;;;;;5057395;28;20117;-50
2022/01/26 12:09:24;;;;;;;9.32;5.03;;;;;;;;;;5055646;28;20089;-46
2022/01/26 12:11:53;;;;;;;13.00;5.22;;;;;;;;;;5059438;28;20669;-43
2022/01/26 12:14:20;;;;;;;6.25;5.65;;;;;;;;;;5059248;28;20017;-45
2022/01/26 12:16:48;;;;;;;8.77;5.80;;;;;;;;;;5058841;28;20021;-44
2022/01/26 12:43:38;;;;;;;13.77;5.70;;;;;;;;;;5055979;28;20061;-46
2022/01/26 12:46:05;;;;;;;7.45;5.55;;;;;;;;;;5057288;28;20024;-44
2022/01/26 12:48:34;;;;;;;12.95;6.45;;;;;;;;;;5054413;28;20037;-44
2022/01/26 12:50:59;;;;;;;8.52;7.68;;;;;;;;;;5053092;28;20102;-45
2022/01/26 12:53:25;;;;;;;8.52;6.22;;;;;;;;;;5055701;28;20553;-46
2022/01/26 12:55:58;;;;;;;7.03;5.53;;;;;;;;;;5003377;28;1373524;-47
2022/01/26 12:58:33;;;;;;;4.97;3.97;;;;;;;;;;5054892;28;20052;-44
2022/01/26 13:01:00;;;;;;;5.63;4.30;;;;;;;;;;5054691;28;20066;-46
2022/01/26 13:03:28;;;;;;;5.00;3.55;;;;;;;;;;5055400;28;20028;-46
2022/01/26 13:06:03;;;;;;;9.55;7.38;;;;;;;;;;5057042;28;20025;-43
2022/01/26 13:08:38;;;;;;;11.85;5.28;;;;;;;;;;5055009;28;20040;-44
2022/01/26 13:11:03;;;;;;;6.28;2.92;;;;;;;;;;5054889;28;20098;-45
2022/01/26 13:13:32;;;;;;;6.93;3.55;;;;;;;;;;5057212;28;20036;-43
2022/01/26 13:16:10;;;;;;;8.68;3.13;;;;;;;;;;5051119;28;20077;-48
2022/01/26 13:24:08;;;;;;;10.57;4.18;;;;;;;;;;5053633;28;20090;-48
2022/01/26 13:32:17;;;;;;;2.72;1.63;;;;;;;;;;5057465;28;20024;-46
2022/01/26 13:38:14;;;;;;;3.60;2.13;;;;;;;;;;5053944;28;20041;-42
2022/01/26 13:40:36;;;;;;;4.13;2.25;;;;;;;;;;5058246;28;20052;-43
2022/01/26 13:43:31;;;;;;;2.33;1.83;;;;;;;;;;5053637;28;20473;-43
2022/01/26 13:46:39;;;;;;;4.35;1.65;;;;;;;;;;5058302;28;20402;-48
2022/01/26 13:54:11;;;;;;;4.18;2.78;;;;;;;;;;5057905;28;20940;-47
2022/01/26 13:56:51;;;;;;;4.57;1.77;;;;;;;;;;5055893;28;20138;-46
2022/01/26 14:01:43;;;;;;;4.13;2.35;;;;;;;;;;5052337;28;20021;-47
2022/01/26 14:04:09;;;;;;;3.20;2.08;;;;;;;;;;5056102;28;20039;-47
2022/01/26 14:06:34;;;;;;;4.05;2.78;;;;;;;;;;5052754;28;20017;-50
2022/01/26 14:08:59;;;;;;;4.38;2.15;;;;;;;;;;5055019;28;20113;-47
2022/01/26 14:11:25;;;;;;;8.18;3.50;;;;;;;;;;5054003;28;20024;-48
2022/01/26 14:13:54;;;;;;;4.68;1.58;;;;;;;;;;5056441;28;20028;-43
2022/01/26 14:16:21;;;;;;;3.53;2.42;;;;;;;;;;5054696;28;20114;-46
2022/01/26 14:21:44;;;;;;;5.90;2.92;;;;;;;;;;5053226;28;20496;-43
2022/01/26 14:26:44;;;;;;;7.70;4.57;;;;;;;;;;5054338;28;20163;-51
2022/01/26 14:29:28;;;;;;;9.05;5.68;;;;;;;;;;5055100;28;20024;-45
2022/01/26 14:35:09;;;;;;;8.10;5.68;;;;;;;;;;5054437;28;20040;-42
2022/01/26 14:51:23;;;;;;;9.82;7.20;;;;;;;;;;5055052;28;20048;-46
2022/01/26 15:11:01;;;;;;;12.18;4.15;;;;;;;;;;5054463;28;20100;-44
2022/01/26 15:33:06;;;;;;;20.50;18.73;;;;;;;;;;5054917;28;20543;-45
2022/01/26 15:35:00;;;;;;;14.55;13.27;;;;;;;;;;5054093;28;20559;-45
2022/01/26 15:43:38;;;;;;;20.30;18.15;;;;;;;;;;5026145;28;20064;-42
2022/01/26 15:49:30;;;;;;;34.45;25.58;;;;;;;;;;5046243;28;20167;-41
2022/01/26 16:08:14;;;;;;;20.02;17.90;;;;;;;;;;5057733;28;20028;-43
2022/01/26 17:02:32;;;;;;;43.90;39.13;;;;;;;;;;5055974;28;20039;-45
2022/01/26 17:43:15;;;;;;;35.05;31.10;;;;;;;;;;5057388;28;20091;-47
2022/01/26 18:15:42;;;;;;;46.60;37.80;;;;;;;;;;5052060;28;20512;-43
2022/01/26 18:32:01;;;;;;;38.95;29.73;;;;;;;;;;5056361;28;20147;-53
2022/01/26 18:50:35;;;;;;;35.72;28.98;;;;;;;;;;5054272;28;20028;-50
2022/01/26 18:53:00;;;;;;;54.22;30.90;;;;;;;;;;5055590;28;20401;-51
2022/01/26 18:55:25;;;;;;;24.98;20.52;;;;;;;;;;5055519;28;20047;-54
2022/01/26 18:57:50;;;;;;;26.63;19.92;;;;;;;;;;5057122;28;20045;-54
2022/01/26 19:00:16;;;;;;;31.02;25.45;;;;;;;;;;5056993;28;20534;-51
2022/01/26 19:02:41;;;;;;;42.38;37.30;;;;;;;;;;5052759;28;20029;-54
2022/01/26 19:05:07;;;;;;;92.97;74.90;;;;;;;;;;5053835;28;20032;-53
2022/01/26 19:07:33;;;;;;;65.78;57.33;;;;;;;;;;5055008;28;20539;-51
2022/01/26 19:09:59;;;;;;;56.97;50.85;;;;;;;;;;5056387;28;20516;-52
2022/01/26 19:12:27;;;;;;;47.10;42.50;;;;;;;;;;5059044;28;20029;-53
2022/01/26 19:14:57;;;;;;;43.30;37.92;;;;;;;;;;5058568;28;20029;-54
2022/01/26 19:17:48;;;;;;;38.28;33.25;;;;;;;;;;5054885;28;20017;-52
2022/01/26 19:23:07;;;;;;;59.25;47.78;;;;;;;;;;5057376;28;20089;-51
2022/01/26 19:25:41;;;;;;;43.88;32.35;;;;;;;;;;5057607;28;20024;-53
2022/01/26 19:46:50;;;;;;;46.42;40.92;;;;;;;;;;5059656;28;20529;-52
2022/01/26 19:54:28;;;;;;;52.78;41.40;;;;;;;;;;5059409;28;20082;-54
2022/01/26 19:56:53;;;;;;;62.70;47.75;;;;;;;;;;5057213;28;20040;-54
2022/01/26 19:59:18;;;;;;;61.50;50.95;;;;;;;;;;5058264;28;20031;-52
2022/01/26 20:01:44;;;;;;;80.10;66.68;;;;;;;;;;5056961;28;20028;-55
2022/01/26 20:04:09;;;;;;;68.70;57.97;;;;;;;;;;5061987;28;20384;-53
2022/01/26 20:06:35;;;;;;;67.80;60.83;;;;;;;;;;5057686;28;20104;-52
2022/01/26 20:09:13;;;;;;;66.50;59.05;;;;;;;;;;5056491;28;20028;-52
2022/01/26 20:11:53;;;;;;;66.50;59.10;;;;;;;;;;5054702;28;20040;-52
2022/01/26 20:14:22;;;;;;;66.10;58.33;;;;;;;;;;5056140;28;20036;-52
2022/01/26 20:16:48;;;;;;;61.95;53.95;;;;;;;;;;5056744;28;20029;-51
2022/01/26 20:19:14;;;;;;;75.50;56.85;;;;;;;;;;5056528;28;20078;-54
2022/01/26 20:21:39;;;;;;;51.72;44.95;;;;;;;;;;5060115;28;20051;-51
2022/01/26 20:24:04;;;;;;;47.67;42.47;;;;;;;;;;5057427;28;20013;-52
2022/01/26 20:26:29;;;;;;;41.40;36.67;;;;;;;;;;5053349;28;20025;-54
2022/01/26 20:28:55;;;;;;;33.83;30.25;;;;;;;;;;5057968;28;20036;-54
2022/01/26 20:31:25;;;;;;;37.35;31.33;;;;;;;;;;5058497;28;20103;-55
2022/01/26 20:33:51;;;;;;;33.83;30.15;;;;;;;;;;5056419;28;20057;-50
2022/01/26 20:36:17;;;;;;;48.42;28.77;;;;;;;;;;5055958;28;20017;-59
2022/01/26 20:38:43;;;;;;;29.52;26.45;;;;;;;;;;5055571;28;20020;-56
2022/01/26 20:41:08;;;;;;;51.33;38.13;;;;;;;;;;5055515;28;20108;-56
2022/01/26 20:43:34;;;;;;;52.75;46.70;;;;;;;;;;5061605;28;20020;-57
2022/01/26 20:46:02;;;;;;;52.25;42.42;;;;;;;;;;5059316;28;20092;-52
2022/01/26 20:48:27;;;;;;;51.72;45.90;;;;;;;;;;5056425;28;20036;-59
2022/01/26 20:50:53;;;;;;;49.03;40.70;;;;;;;;;;5054196;28;20024;-62
2022/01/26 20:53:18;;;;;;;60.10;43.85;;;;;;;;;;5052750;28;20021;-58
2022/01/26 20:55:44;;;;;;;72.22;51.58;;;;;;;;;;5054950;28;20123;-61
2022/01/26 20:58:09;;;;;;;68.55;58.42;;;;;;;;;;5052276;28;20025;-56
2022/01/26 21:00:34;;;;;;;64.38;56.97;;;;;;;;;;5057640;28;20032;-50
2022/01/26 21:02:59;;;;;;;56.25;49.15;;;;;;;;;;5056031;28;20397;-47
2022/01/26 21:05:29;;;;;;;47.70;42.50;;;;;;;;;;5056268;28;20028;-48
2022/01/26 21:07:55;;;;;;;53.90;47.58;;;;;;;;;;5057391;28;20059;-44
2022/01/26 21:10:21;;;;;;;50.60;45.08;;;;;;;;;;5057229;28;20025;-51
2022/01/26 21:12:46;;;;;;;54.50;41.08;;;;;;;;;;5056052;28;20734;-48
2022/01/26 21:15:12;;;;;;;63.22;56.42;;;;;;;;;;5056539;28;20025;-47
2022/01/26 21:17:37;;;;;;;57.65;51.95;;;;;;;;;;5055538;28;20030;-51
2022/01/26 21:20:04;;;;;;;59.88;52.72;;;;;;;;;;5055912;28;20025;-50
2022/01/26 21:22:29;;;;;;;59.47;53.60;;;;;;;;;;5058446;28;20436;-53
2022/01/26 21:24:54;;;;;;;73.55;55.92;;;;;;;;;;5053609;28;20482;-50
2022/01/26 21:27:21;;;;;;;62.72;51.42;;;;;;;;;;5057213;28;20028;-53
2022/01/26 21:29:46;;;;;;;66.78;53.92;;;;;;;;;;5057203;28;20033;-50
2022/01/26 21:32:11;;;;;;;51.92;35.85;;;;;;;;;;5056781;28;20028;-49
2022/01/26 21:34:37;;;;;;;43.33;38.85;;;;;;;;;;5056066;28;20507;-50
2022/01/26 21:37:03;;;;;;;81.70;65.15;;;;;;;;;;5055722;28;20049;-50
2022/01/26 21:39:31;;;;;;;97.28;69.82;;;;;;;;;;5055211;28;20066;-50